sensor_id;sensor_type;location;lat;lon;timestamp;pressure;altitude;pressure_sealevel;temperature
12430;BMP280;6279;42.192;24.326;2022-07-29T00:02:26;99065.63;;;23.80
12430;BMP280;6279;42.192;24.326;2022-07-29T00:04:51;99063.44;;;23.77
12430;BMP280;6279;42.192;24.326;2022-07-29T00:07:17;99071.88;;;23.70
12430;BMP280;6279;42.192;24.326;2022-07-29T00:09:42;99078.59;;;23.77
12430;BMP280;6279;42.192;24.326;2022-07-29T00:12:08;99074.56;;;23.74
12430;BMP280;6279;42.192;24.326;2022-07-29T00:14:34;99070.25;;;23.69
12430;BMP280;6279;42.192;24.326;2022-07-29T00:16:59;99076.31;;;23.64
12430;BMP280;6279;42.192;24.326;2022-07-29T00:19:25;99073.91;;;23.63
12430;BMP280;6279;42.192;24.326;2022-07-29T00:21:50;99071.25;;;23.63
12430;BMP280;6279;42.192;24.326;2022-07-29T00:24:16;99080.94;;;23.52
12430;BMP280;6279;42.192;24.326;2022-07-29T00:26:41;99070.81;;;23.50
12430;BMP280;6279;42.192;24.326;2022-07-29T00:29:06;99073.66;;;23.43
12430;BMP280;6279;42.192;24.326;2022-07-29T00:31:32;99071.97;;;23.37
12430;BMP280;6279;42.192;24.326;2022-07-29T00:33:57;99069.22;;;23.32
12430;BMP280;6279;42.192;24.326;2022-07-29T00:36:23;99066.66;;;23.37
12430;BMP280;6279;42.192;24.326;2022-07-29T00:38:51;99068.28;;;23.38
12430;BMP280;6279;42.192;24.326;2022-07-29T00:41:18;99065.72;;;23.27
12430;BMP280;6279;42.192;24.326;2022-07-29T00:43:44;99077.97;;;23.12
12430;BMP280;6279;42.192;24.326;2022-07-29T00:46:10;99067.84;;;23.09
12430;BMP280;6279;42.192;24.326;2022-07-29T00:48:35;99072.59;;;23.07
12430;BMP280;6279;42.192;24.326;2022-07-29T00:51:02;99072.66;;;23.12
12430;BMP280;6279;42.192;24.326;2022-07-29T00:53:28;99067.84;;;23.09
12430;BMP280;6279;42.192;24.326;2022-07-29T00:55:54;99072.19;;;22.99
12430;BMP280;6279;42.192;24.326;2022-07-29T00:58:21;99072.38;;;22.92
12430;BMP280;6279;42.192;24.326;2022-07-29T01:00:47;99068.38;;;22.90
12430;BMP280;6279;42.192;24.326;2022-07-29T01:03:12;99077.19;;;22.79
12430;BMP280;6279;42.192;24.326;2022-07-29T01:05:39;99066.53;;;22.74
12430;BMP280;6279;42.192;24.326;2022-07-29T01:08:06;99068.50;;;22.84
12430;BMP280;6279;42.192;24.326;2022-07-29T01:10:32;99066.84;;;22.78
12430;BMP280;6279;42.192;24.326;2022-07-29T01:12:58;99055.81;;;22.86
12430;BMP280;6279;42.192;24.326;2022-07-29T01:15:26;99063.22;;;22.84
12430;BMP280;6279;42.192;24.326;2022-07-29T01:18:03;99061.91;;;22.70
12430;BMP280;6279;42.192;24.326;2022-07-29T01:26:31;99060.38;;;22.58
12430;BMP280;6279;42.192;24.326;2022-07-29T01:29:21;99064.56;;;22.54
12430;BMP280;6279;42.192;24.326;2022-07-29T01:31:54;99051.75;;;22.51
12430;BMP280;6279;42.192;24.326;2022-07-29T01:34:25;99057.47;;;22.43
12430;BMP280;6279;42.192;24.326;2022-07-29T01:37:04;99057.56;;;22.48
12430;BMP280;6279;42.192;24.326;2022-07-29T01:39:32;99056.59;;;22.38
12430;BMP280;6279;42.192;24.326;2022-07-29T01:44:39;99054.50;;;22.23
12430;BMP280;6279;42.192;24.326;2022-07-29T01:47:13;99061.34;;;22.08
12430;BMP280;6279;42.192;24.326;2022-07-29T01:49:45;99056.47;;;22.17
12430;BMP280;6279;42.192;24.326;2022-07-29T01:52:20;99058.56;;;22.15
12430;BMP280;6279;42.192;24.326;2022-07-29T01:54:54;99052.81;;;22.18
12430;BMP280;6279;42.192;24.326;2022-07-29T01:57:27;99058.22;;;22.11
12430;BMP280;6279;42.192;24.326;2022-07-29T01:59:56;99059.94;;;22.17
12430;BMP280;6279;42.192;24.326;2022-07-29T02:02:23;99058.16;;;22.06
12430;BMP280;6279;42.192;24.326;2022-07-29T02:04:49;99060.22;;;22.04
12430;BMP280;6279;42.192;24.326;2022-07-29T02:07:19;99063.13;;;22.03
12430;BMP280;6279;42.192;24.326;2022-07-29T02:09:45;99060.72;;;22.01
12430;BMP280;6279;42.192;24.326;2022-07-29T02:12:14;99060.22;;;22.04
12430;BMP280;6279;42.192;24.326;2022-07-29T02:14:45;99059.34;;;21.88
12430;BMP280;6279;42.192;24.326;2022-07-29T02:17:12;99049.75;;;21.71
12430;BMP280;6279;42.192;24.326;2022-07-29T02:19:39;99056.09;;;21.70
12430;BMP280;6279;42.192;24.326;2022-07-29T02:22:06;99049.22;;;21.57
12430;BMP280;6279;42.192;24.326;2022-07-29T02:24:35;99049.22;;;21.57
12430;BMP280;6279;42.192;24.326;2022-07-29T02:27:02;99050.88;;;21.47
12430;BMP280;6279;42.192;24.326;2022-07-29T02:29:30;99044.41;;;21.43
12430;BMP280;6279;42.192;24.326;2022-07-29T02:31:57;99049.84;;;21.37
12430;BMP280;6279;42.192;24.326;2022-07-29T02:34:25;99043.59;;;21.43
12430;BMP280;6279;42.192;24.326;2022-07-29T02:36:51;99041.44;;;21.40
12430;BMP280;6279;42.192;24.326;2022-07-29T02:39:18;99040.41;;;21.41
12430;BMP280;6279;42.192;24.326;2022-07-29T02:41:49;99038.53;;;21.53
12430;BMP280;6279;42.192;24.326;2022-07-29T02:44:20;99036.06;;;21.62
12430;BMP280;6279;42.192;24.326;2022-07-29T02:51:52;99047.41;;;21.47
12430;BMP280;6279;42.192;24.326;2022-07-29T02:56:51;99055.34;;;21.47
12430;BMP280;6279;42.192;24.326;2022-07-29T02:59:24;99049.75;;;21.32
12430;BMP280;6279;42.192;24.326;2022-07-29T03:01:52;99054.34;;;21.25
12430;BMP280;6279;42.192;24.326;2022-07-29T03:04:18;99054.81;;;21.11
12430;BMP280;6279;42.192;24.326;2022-07-29T03:06:45;99052.59;;;21.19
12430;BMP280;6279;42.192;24.326;2022-07-29T03:09:11;99048.81;;;21.27
12430;BMP280;6279;42.192;24.326;2022-07-29T03:11:38;99056.66;;;21.33
12430;BMP280;6279;42.192;24.326;2022-07-29T03:14:05;99060.09;;;21.33
12430;BMP280;6279;42.192;24.326;2022-07-29T03:16:31;99063.88;;;21.04
12430;BMP280;6279;42.192;24.326;2022-07-29T03:18:57;99062.28;;;21.03
12430;BMP280;6279;42.192;24.326;2022-07-29T03:21:22;99070.78;;;21.05
12430;BMP280;6279;42.192;24.326;2022-07-29T03:23:48;99069.88;;;21.10
12430;BMP280;6279;42.192;24.326;2022-07-29T03:26:13;99068.25;;;20.98
12430;BMP280;6279;42.192;24.326;2022-07-29T03:28:39;99066.88;;;21.18
12430;BMP280;6279;42.192;24.326;2022-07-29T03:31:04;99062.97;;;21.21
12430;BMP280;6279;42.192;24.326;2022-07-29T03:33:30;99063.44;;;21.29
12430;BMP280;6279;42.192;24.326;2022-07-29T03:35:56;99072.16;;;21.18
12430;BMP280;6279;42.192;24.326;2022-07-29T03:38:23;99066.75;;;21.25
12430;BMP280;6279;42.192;24.326;2022-07-29T03:41:03;99068.13;;;21.38
12430;BMP280;6279;42.192;24.326;2022-07-29T03:43:32;99082.38;;;21.49
12430;BMP280;6279;42.192;24.326;2022-07-29T03:45:59;99074.16;;;21.61
12430;BMP280;6279;42.192;24.326;2022-07-29T03:48:26;99072.09;;;21.63
12430;BMP280;6279;42.192;24.326;2022-07-29T03:50:55;99066.19;;;21.73
12430;BMP280;6279;42.192;24.326;2022-07-29T03:53:20;99070.03;;;21.65
12430;BMP280;6279;42.192;24.326;2022-07-29T03:55:53;99072.53;;;21.72
12430;BMP280;6279;42.192;24.326;2022-07-29T03:58:19;99069.31;;;21.70
12430;BMP280;6279;42.192;24.326;2022-07-29T04:00:46;99070.50;;;21.90
12430;BMP280;6279;42.192;24.326;2022-07-29T04:03:12;99080.09;;;21.79
12430;BMP280;6279;42.192;24.326;2022-07-29T04:05:38;99078.38;;;21.85
12430;BMP280;6279;42.192;24.326;2022-07-29T04:08:04;99079.13;;;21.97
12430;BMP280;6279;42.192;24.326;2022-07-29T04:10:30;99080.63;;;22.04
12430;BMP280;6279;42.192;24.326;2022-07-29T04:12:55;99089.47;;;22.09
12430;BMP280;6279;42.192;24.326;2022-07-29T04:15:21;99085.84;;;22.15
12430;BMP280;6279;42.192;24.326;2022-07-29T04:17:46;99093.09;;;22.20
12430;BMP280;6279;42.192;24.326;2022-07-29T04:20:12;99083.06;;;22.21
12430;BMP280;6279;42.192;24.326;2022-07-29T04:22:39;99090.13;;;22.32
12430;BMP280;6279;42.192;24.326;2022-07-29T04:25:04;99093.69;;;22.38
12430;BMP280;6279;42.192;24.326;2022-07-29T04:27:30;99082.72;;;22.62
12430;BMP280;6279;42.192;24.326;2022-07-29T04:29:55;99087.63;;;22.86
12430;BMP280;6279;42.192;24.326;2022-07-29T04:32:21;99081.50;;;23.01
12430;BMP280;6279;42.192;24.326;2022-07-29T04:34:46;99086.97;;;23.11
12430;BMP280;6279;42.192;24.326;2022-07-29T04:37:12;99086.41;;;23.25
12430;BMP280;6279;42.192;24.326;2022-07-29T04:39:37;99087.06;;;23.53
12430;BMP280;6279;42.192;24.326;2022-07-29T04:42:03;99081.06;;;23.83
12430;BMP280;6279;42.192;24.326;2022-07-29T04:44:28;99076.59;;;24.10
12430;BMP280;6279;42.192;24.326;2022-07-29T04:46:55;99088.81;;;24.32
12430;BMP280;6279;42.192;24.326;2022-07-29T04:49:20;99090.78;;;24.46
12430;BMP280;6279;42.192;24.326;2022-07-29T04:51:45;99076.22;;;24.79
12430;BMP280;6279;42.192;24.326;2022-07-29T04:54:11;99088.09;;;25.03
12430;BMP280;6279;42.192;24.326;2022-07-29T04:56:36;99081.47;;;25.46
12430;BMP280;6279;42.192;24.326;2022-07-29T04:59:02;99078.53;;;26.07
12430;BMP280;6279;42.192;24.326;2022-07-29T05:01:27;99089.06;;;26.72
12430;BMP280;6279;42.192;24.326;2022-07-29T05:03:52;99090.66;;;27.27
12430;BMP280;6279;42.192;24.326;2022-07-29T05:06:18;99093.72;;;27.73
12430;BMP280;6279;42.192;24.326;2022-07-29T05:08:43;99085.41;;;27.84
12430;BMP280;6279;42.192;24.326;2022-07-29T05:11:08;99087.97;;;28.09
12430;BMP280;6279;42.192;24.326;2022-07-29T05:13:34;99091.16;;;28.11
12430;BMP280;6279;42.192;24.326;2022-07-29T05:15:59;99095.88;;;28.33
12430;BMP280;6279;42.192;24.326;2022-07-29T05:18:25;99094.69;;;28.49
12430;BMP280;6279;42.192;24.326;2022-07-29T05:20:51;99090.53;;;28.23
12430;BMP280;6279;42.192;24.326;2022-07-29T05:23:16;99092.53;;;28.08
12430;BMP280;6279;42.192;24.326;2022-07-29T05:25:42;99088.66;;;28.29
12430;BMP280;6279;42.192;24.326;2022-07-29T05:28:07;99088.38;;;28.35
12430;BMP280;6279;42.192;24.326;2022-07-29T05:30:32;99091.00;;;28.45
12430;BMP280;6279;42.192;24.326;2022-07-29T05:32:58;99098.13;;;28.54
12430;BMP280;6279;42.192;24.326;2022-07-29T05:35:23;99091.78;;;28.78
12430;BMP280;6279;42.192;24.326;2022-07-29T05:37:49;99093.00;;;29.23
12430;BMP280;6279;42.192;24.326;2022-07-29T05:40:14;99090.22;;;29.61
12430;BMP280;6279;42.192;24.326;2022-07-29T05:42:39;99102.19;;;29.17
12430;BMP280;6279;42.192;24.326;2022-07-29T05:45:05;99099.19;;;29.52
12430;BMP280;6279;42.192;24.326;2022-07-29T05:47:31;99101.88;;;29.52
12430;BMP280;6279;42.192;24.326;2022-07-29T05:49:56;99101.13;;;29.69
12430;BMP280;6279;42.192;24.326;2022-07-29T05:52:22;99112.72;;;29.37
12430;BMP280;6279;42.192;24.326;2022-07-29T05:54:47;99111.16;;;29.59
12430;BMP280;6279;42.192;24.326;2022-07-29T05:57:21;99106.13;;;29.52
12430;BMP280;6279;42.192;24.326;2022-07-29T05:59:47;99100.91;;;29.84
12430;BMP280;6279;42.192;24.326;2022-07-29T06:02:13;99114.00;;;29.67
12430;BMP280;6279;42.192;24.326;2022-07-29T06:04:38;99107.88;;;29.85
12430;BMP280;6279;42.192;24.326;2022-07-29T06:07:04;99108.69;;;30.08
12430;BMP280;6279;42.192;24.326;2022-07-29T06:09:29;99105.22;;;30.44
12430;BMP280;6279;42.192;24.326;2022-07-29T06:11:55;99109.88;;;30.75
12430;BMP280;6279;42.192;24.326;2022-07-29T06:14:21;99108.38;;;31.00
12430;BMP280;6279;42.192;24.326;2022-07-29T06:16:46;99116.81;;;31.12
12430;BMP280;6279;42.192;24.326;2022-07-29T06:19:12;99106.50;;;31.32
12430;BMP280;6279;42.192;24.326;2022-07-29T06:21:44;99113.91;;;31.53
12430;BMP280;6279;42.192;24.326;2022-07-29T06:24:11;99115.25;;;31.37
12430;BMP280;6279;42.192;24.326;2022-07-29T06:26:38;99117.78;;;31.47
12430;BMP280;6279;42.192;24.326;2022-07-29T06:29:03;99108.03;;;31.91
12430;BMP280;6279;42.192;24.326;2022-07-29T06:31:28;99106.06;;;32.09
12430;BMP280;6279;42.192;24.326;2022-07-29T06:33:54;99110.53;;;32.14
12430;BMP280;6279;42.192;24.326;2022-07-29T06:36:19;99116.06;;;32.57
12430;BMP280;6279;42.192;24.326;2022-07-29T06:38:45;99115.22;;;33.12
12430;BMP280;6279;42.192;24.326;2022-07-29T06:41:10;99119.59;;;33.52
12430;BMP280;6279;42.192;24.326;2022-07-29T06:43:42;99118.06;;;33.37
12430;BMP280;6279;42.192;24.326;2022-07-29T06:46:09;99110.63;;;33.43
12430;BMP280;6279;42.192;24.326;2022-07-29T06:48:35;99111.44;;;33.13
12430;BMP280;6279;42.192;24.326;2022-07-29T06:51:05;99113.56;;;33.03
12430;BMP280;6279;42.192;24.326;2022-07-29T06:53:31;99104.78;;;32.98
12430;BMP280;6279;42.192;24.326;2022-07-29T06:55:58;99103.22;;;32.97
12430;BMP280;6279;42.192;24.326;2022-07-29T06:58:24;99097.03;;;33.18
12430;BMP280;6279;42.192;24.326;2022-07-29T07:00:50;99088.09;;;33.39
12430;BMP280;6279;42.192;24.326;2022-07-29T07:03:17;99096.72;;;33.19
12430;BMP280;6279;42.192;24.326;2022-07-29T07:05:43;99089.44;;;32.77
12430;BMP280;6279;42.192;24.326;2022-07-29T07:08:09;99090.22;;;33.20
12430;BMP280;6279;42.192;24.326;2022-07-29T07:10:35;99090.03;;;33.17
12430;BMP280;6279;42.192;24.326;2022-07-29T07:13:01;99087.75;;;33.32
12430;BMP280;6279;42.192;24.326;2022-07-29T07:15:27;99083.53;;;33.86
12430;BMP280;6279;42.192;24.326;2022-07-29T07:17:53;99078.63;;;33.88
12430;BMP280;6279;42.192;24.326;2022-07-29T07:20:18;99080.81;;;34.40
12430;BMP280;6279;42.192;24.326;2022-07-29T07:22:44;99083.03;;;34.39
12430;BMP280;6279;42.192;24.326;2022-07-29T07:25:10;99090.44;;;34.00
12430;BMP280;6279;42.192;24.326;2022-07-29T07:27:36;99088.16;;;33.94
12430;BMP280;6279;42.192;24.326;2022-07-29T07:30:03;99079.56;;;34.46
12430;BMP280;6279;42.192;24.326;2022-07-29T07:32:31;99087.00;;;34.49
12430;BMP280;6279;42.192;24.326;2022-07-29T07:34:56;99077.97;;;33.82
12430;BMP280;6279;42.192;24.326;2022-07-29T07:37:22;99085.88;;;34.42
12430;BMP280;6279;42.192;24.326;2022-07-29T07:39:50;99089.25;;;34.47
12430;BMP280;6279;42.192;24.326;2022-07-29T07:42:15;99084.78;;;34.84
12430;BMP280;6279;42.192;24.326;2022-07-29T07:44:40;99086.22;;;35.07
12430;BMP280;6279;42.192;24.326;2022-07-29T07:47:06;99076.06;;;34.87
12430;BMP280;6279;42.192;24.326;2022-07-29T07:49:31;99084.03;;;35.37
12430;BMP280;6279;42.192;24.326;2022-07-29T07:51:57;99083.94;;;35.71
12430;BMP280;6279;42.192;24.326;2022-07-29T07:54:22;99083.66;;;35.64
12430;BMP280;6279;42.192;24.326;2022-07-29T07:56:48;99083.56;;;35.35
12430;BMP280;6279;42.192;24.326;2022-07-29T07:59:15;99076.13;;;35.32
12430;BMP280;6279;42.192;24.326;2022-07-29T08:01:40;99080.34;;;35.58
12430;BMP280;6279;42.192;24.326;2022-07-29T08:04:06;99075.06;;;36.99
12430;BMP280;6279;42.192;24.326;2022-07-29T08:06:33;99079.41;;;36.80
12430;BMP280;6279;42.192;24.326;2022-07-29T08:09:00;99078.44;;;35.96
12430;BMP280;6279;42.192;24.326;2022-07-29T08:11:25;99079.06;;;36.61
12430;BMP280;6279;42.192;24.326;2022-07-29T08:13:51;99072.00;;;36.68
12430;BMP280;6279;42.192;24.326;2022-07-29T08:16:17;99075.78;;;37.39
12430;BMP280;6279;42.192;24.326;2022-07-29T08:18:44;99069.03;;;37.80
12430;BMP280;6279;42.192;24.326;2022-07-29T08:21:10;99065.78;;;36.88
12430;BMP280;6279;42.192;24.326;2022-07-29T08:23:36;99062.84;;;36.93
12430;BMP280;6279;42.192;24.326;2022-07-29T08:26:06;99062.91;;;37.05
12430;BMP280;6279;42.192;24.326;2022-07-29T08:28:36;99060.34;;;38.10
12430;BMP280;6279;42.192;24.326;2022-07-29T08:31:02;99064.72;;;37.68
12430;BMP280;6279;42.192;24.326;2022-07-29T08:33:27;99064.28;;;38.63
12430;BMP280;6279;42.192;24.326;2022-07-29T08:35:53;99068.25;;;39.65
12430;BMP280;6279;42.192;24.326;2022-07-29T08:38:18;99057.34;;;39.95
12430;BMP280;6279;42.192;24.326;2022-07-29T08:40:44;99063.94;;;39.18
12430;BMP280;6279;42.192;24.326;2022-07-29T08:43:10;99055.69;;;39.60
12430;BMP280;6279;42.192;24.326;2022-07-29T08:45:45;99054.84;;;40.20
12430;BMP280;6279;42.192;24.326;2022-07-29T08:48:13;99045.78;;;40.69
12430;BMP280;6279;42.192;24.326;2022-07-29T08:50:39;99052.22;;;41.17
12430;BMP280;6279;42.192;24.326;2022-07-29T08:53:08;99051.25;;;39.10
12430;BMP280;6279;42.192;24.326;2022-07-29T08:55:36;99043.00;;;40.47
12430;BMP280;6279;42.192;24.326;2022-07-29T08:58:02;99049.53;;;40.61
12430;BMP280;6279;42.192;24.326;2022-07-29T09:00:27;99047.44;;;40.73
12430;BMP280;6279;42.192;24.326;2022-07-29T09:02:57;99037.94;;;41.93
12430;BMP280;6279;42.192;24.326;2022-07-29T09:05:24;99037.06;;;41.63
12430;BMP280;6279;42.192;24.326;2022-07-29T09:07:51;99029.13;;;41.33
12430;BMP280;6279;42.192;24.326;2022-07-29T09:10:17;99038.41;;;40.51
12430;BMP280;6279;42.192;24.326;2022-07-29T09:12:42;99028.97;;;39.20
12430;BMP280;6279;42.192;24.326;2022-07-29T09:15:08;99028.91;;;40.82
12430;BMP280;6279;42.192;24.326;2022-07-29T09:17:48;99026.16;;;40.08
12430;BMP280;6279;42.192;24.326;2022-07-29T09:20:16;99023.66;;;40.37
12430;BMP280;6279;42.192;24.326;2022-07-29T09:22:42;99017.50;;;39.57
12430;BMP280;6279;42.192;24.326;2022-07-29T09:25:08;99017.59;;;39.76
12430;BMP280;6279;42.192;24.326;2022-07-29T09:27:34;99007.19;;;40.86
12430;BMP280;6279;42.192;24.326;2022-07-29T09:30:05;99014.53;;;41.04
12430;BMP280;6279;42.192;24.326;2022-07-29T09:32:32;99017.41;;;39.69
12430;BMP280;6279;42.192;24.326;2022-07-29T09:35:33;99014.66;;;41.10
12430;BMP280;6279;42.192;24.326;2022-07-29T09:38:09;98995.97;;;41.56
12430;BMP280;6279;42.192;24.326;2022-07-29T09:40:35;99010.47;;;41.16
12430;BMP280;6279;42.192;24.326;2022-07-29T09:43:12;99006.13;;;42.03
12430;BMP280;6279;42.192;24.326;2022-07-29T09:45:38;99002.84;;;43.20
12430;BMP280;6279;42.192;24.326;2022-07-29T09:48:21;98993.03;;;43.62
12430;BMP280;6279;42.192;24.326;2022-07-29T09:50:47;99000.78;;;42.75
12430;BMP280;6279;42.192;24.326;2022-07-29T09:53:36;98994.31;;;43.75
12430;BMP280;6279;42.192;24.326;2022-07-29T09:56:03;98986.28;;;44.96
12430;BMP280;6279;42.192;24.326;2022-07-29T09:58:29;98977.19;;;46.32
12430;BMP280;6279;42.192;24.326;2022-07-29T10:00:55;98986.72;;;45.15
12430;BMP280;6279;42.192;24.326;2022-07-29T10:03:22;98983.38;;;44.48
12430;BMP280;6279;42.192;24.326;2022-07-29T10:06:10;98984.69;;;44.74
12430;BMP280;6279;42.192;24.326;2022-07-29T10:08:37;98976.22;;;43.17
12430;BMP280;6279;42.192;24.326;2022-07-29T10:11:16;98982.00;;;42.12
12430;BMP280;6279;42.192;24.326;2022-07-29T10:13:44;98977.00;;;42.79
12430;BMP280;6279;42.192;24.326;2022-07-29T10:16:11;98975.19;;;43.81
12430;BMP280;6279;42.192;24.326;2022-07-29T10:18:40;98966.06;;;44.30
12430;BMP280;6279;42.192;24.326;2022-07-29T10:21:06;98971.53;;;42.79
12430;BMP280;6279;42.192;24.326;2022-07-29T10:23:33;98961.25;;;43.08
12430;BMP280;6279;42.192;24.326;2022-07-29T10:25:59;98961.81;;;44.40
12430;BMP280;6279;42.192;24.326;2022-07-29T10:28:25;98962.00;;;45.15
12430;BMP280;6279;42.192;24.326;2022-07-29T10:30:52;98948.22;;;44.70
12430;BMP280;6279;42.192;24.326;2022-07-29T10:42:18;98933.75;;;41.47
12430;BMP280;6279;42.192;24.326;2022-07-29T10:44:45;98944.38;;;42.35
12430;BMP280;6279;42.192;24.326;2022-07-29T10:49:57;98939.63;;;41.01
12430;BMP280;6279;42.192;24.326;2022-07-29T10:52:23;98950.44;;;40.01
12430;BMP280;6279;42.192;24.326;2022-07-29T10:54:53;98937.81;;;39.60
12430;BMP280;6279;42.192;24.326;2022-07-29T10:57:23;98934.34;;;40.49
12430;BMP280;6279;42.192;24.326;2022-07-29T11:07:26;98917.38;;;40.03
12430;BMP280;6279;42.192;24.326;2022-07-29T11:22:56;98902.94;;;39.01
12430;BMP280;6279;42.192;24.326;2022-07-29T11:25:21;98893.16;;;37.89
12430;BMP280;6279;42.192;24.326;2022-07-29T11:27:47;98892.13;;;37.08
12430;BMP280;6279;42.192;24.326;2022-07-29T11:30:13;98887.28;;;37.25
12430;BMP280;6279;42.192;24.326;2022-07-29T11:32:40;98890.69;;;37.57
12430;BMP280;6279;42.192;24.326;2022-07-29T11:35:22;98886.72;;;37.08
12430;BMP280;6279;42.192;24.326;2022-07-29T11:38:26;98874.38;;;37.57
12430;BMP280;6279;42.192;24.326;2022-07-29T11:44:00;98874.13;;;37.74
12430;BMP280;6279;42.192;24.326;2022-07-29T11:46:47;98868.88;;;37.81
12430;BMP280;6279;42.192;24.326;2022-07-29T11:49:19;98866.31;;;37.99
12430;BMP280;6279;42.192;24.326;2022-07-29T11:51:54;98863.88;;;37.83
12430;BMP280;6279;42.192;24.326;2022-07-29T11:54:47;98872.38;;;37.19
12430;BMP280;6279;42.192;24.326;2022-07-29T11:57:13;98858.63;;;37.75
12430;BMP280;6279;42.192;24.326;2022-07-29T11:59:40;98865.22;;;38.00
12430;BMP280;6279;42.192;24.326;2022-07-29T12:02:07;98857.75;;;37.86
12430;BMP280;6279;42.192;24.326;2022-07-29T12:04:34;98858.19;;;37.49
12430;BMP280;6279;42.192;24.326;2022-07-29T12:07:12;98853.75;;;37.68
12430;BMP280;6279;42.192;24.326;2022-07-29T12:09:38;98850.28;;;37.95
12430;BMP280;6279;42.192;24.326;2022-07-29T12:12:03;98859.59;;;37.82
12430;BMP280;6279;42.192;24.326;2022-07-29T12:14:30;98847.44;;;37.64
12430;BMP280;6279;42.192;24.326;2022-07-29T12:16:57;98853.84;;;36.42
12430;BMP280;6279;42.192;24.326;2022-07-29T12:19:22;98850.13;;;36.47
12430;BMP280;6279;42.192;24.326;2022-07-29T12:21:52;98847.19;;;36.40
12430;BMP280;6279;42.192;24.326;2022-07-29T12:24:18;98845.72;;;36.31
12430;BMP280;6279;42.192;24.326;2022-07-29T12:26:54;98839.34;;;36.82
12430;BMP280;6279;42.192;24.326;2022-07-29T12:29:20;98849.88;;;36.84
12430;BMP280;6279;42.192;24.326;2022-07-29T12:31:45;98843.53;;;37.03
12430;BMP280;6279;42.192;24.326;2022-07-29T12:34:12;98841.84;;;36.75
12430;BMP280;6279;42.192;24.326;2022-07-29T12:36:39;98827.56;;;36.55
12430;BMP280;6279;42.192;24.326;2022-07-29T12:39:05;98827.78;;;36.62
12430;BMP280;6279;42.192;24.326;2022-07-29T12:41:31;98830.59;;;36.30
12430;BMP280;6279;42.192;24.326;2022-07-29T12:43:56;98829.47;;;36.42
12430;BMP280;6279;42.192;24.326;2022-07-29T12:46:22;98821.47;;;36.58
12430;BMP280;6279;42.192;24.326;2022-07-29T12:48:51;98816.88;;;36.82
12430;BMP280;6279;42.192;24.326;2022-07-29T12:54:13;98806.72;;;36.79
12430;BMP280;6279;42.192;24.326;2022-07-29T12:56:40;98816.75;;;36.23
12430;BMP280;6279;42.192;24.326;2022-07-29T12:59:16;98823.25;;;35.38
12430;BMP280;6279;42.192;24.326;2022-07-29T13:01:42;98813.66;;;35.21
12430;BMP280;6279;42.192;24.326;2022-07-29T13:04:07;98812.38;;;34.98
12430;BMP280;6279;42.192;24.326;2022-07-29T13:06:44;98815.16;;;35.10
12430;BMP280;6279;42.192;24.326;2022-07-29T13:11:41;98799.06;;;35.94
12430;BMP280;6279;42.192;24.326;2022-07-29T13:14:09;98788.31;;;36.17
12430;BMP280;6279;42.192;24.326;2022-07-29T13:17:08;98790.75;;;36.54
12430;BMP280;6279;42.192;24.326;2022-07-29T13:22:00;98782.75;;;35.82
12430;BMP280;6279;42.192;24.326;2022-07-29T13:24:25;98793.00;;;35.36
12430;BMP280;6279;42.192;24.326;2022-07-29T13:26:51;98786.69;;;35.32
12430;BMP280;6279;42.192;24.326;2022-07-29T13:29:17;98786.53;;;34.81
12430;BMP280;6279;42.192;24.326;2022-07-29T13:31:42;98782.91;;;34.40
12430;BMP280;6279;42.192;24.326;2022-07-29T13:34:08;98777.38;;;34.73
12430;BMP280;6279;42.192;24.326;2022-07-29T13:36:33;98779.53;;;34.80
12430;BMP280;6279;42.192;24.326;2022-07-29T13:38:58;98769.91;;;34.99
12430;BMP280;6279;42.192;24.326;2022-07-29T13:41:26;98768.38;;;34.61
12430;BMP280;6279;42.192;24.326;2022-07-29T13:43:51;98758.13;;;34.75
12430;BMP280;6279;42.192;24.326;2022-07-29T13:46:17;98761.00;;;34.98
12430;BMP280;6279;42.192;24.326;2022-07-29T13:48:42;98771.13;;;35.29
12430;BMP280;6279;42.192;24.326;2022-07-29T13:51:08;98754.00;;;35.37
12430;BMP280;6279;42.192;24.326;2022-07-29T13:53:33;98757.69;;;35.41
12430;BMP280;6279;42.192;24.326;2022-07-29T13:55:58;98750.22;;;35.58
12430;BMP280;6279;42.192;24.326;2022-07-29T13:58:24;98749.66;;;35.65
12430;BMP280;6279;42.192;24.326;2022-07-29T14:00:49;98741.28;;;35.58
12430;BMP280;6279;42.192;24.326;2022-07-29T14:03:15;98745.25;;;35.40
12430;BMP280;6279;42.192;24.326;2022-07-29T14:05:40;98748.25;;;35.07
12430;BMP280;6279;42.192;24.326;2022-07-29T14:08:06;98739.72;;;34.97
12430;BMP280;6279;42.192;24.326;2022-07-29T14:10:31;98742.88;;;34.99
12430;BMP280;6279;42.192;24.326;2022-07-29T14:12:56;98743.34;;;35.21
12430;BMP280;6279;42.192;24.326;2022-07-29T14:15:22;98726.47;;;35.44
12430;BMP280;6279;42.192;24.326;2022-07-29T14:17:48;98739.22;;;35.43
12430;BMP280;6279;42.192;24.326;2022-07-29T14:20:14;98737.28;;;34.75
12430;BMP280;6279;42.192;24.326;2022-07-29T14:22:41;98730.69;;;34.84
12430;BMP280;6279;42.192;24.326;2022-07-29T14:25:08;98728.16;;;34.88
12430;BMP280;6279;42.192;24.326;2022-07-29T14:27:33;98730.38;;;34.86
12430;BMP280;6279;42.192;24.326;2022-07-29T14:29:59;98732.25;;;34.65
12430;BMP280;6279;42.192;24.326;2022-07-29T14:32:24;98730.56;;;34.81
12430;BMP280;6279;42.192;24.326;2022-07-29T14:34:50;98734.38;;;34.80
12430;BMP280;6279;42.192;24.326;2022-07-29T14:37:15;98727.91;;;35.01
12430;BMP280;6279;42.192;24.326;2022-07-29T14:39:40;98721.00;;;35.12
12430;BMP280;6279;42.192;24.326;2022-07-29T14:42:06;98733.38;;;35.13
12430;BMP280;6279;42.192;24.326;2022-07-29T14:44:31;98736.63;;;35.07
12430;BMP280;6279;42.192;24.326;2022-07-29T14:46:58;98726.59;;;35.07
12430;BMP280;6279;42.192;24.326;2022-07-29T14:49:25;98724.94;;;34.94
12430;BMP280;6279;42.192;24.326;2022-07-29T14:51:50;98731.09;;;34.75
12430;BMP280;6279;42.192;24.326;2022-07-29T14:54:16;98724.06;;;34.45
12430;BMP280;6279;42.192;24.326;2022-07-29T14:56:41;98727.16;;;34.36
12430;BMP280;6279;42.192;24.326;2022-07-29T14:59:07;98723.34;;;34.37
12430;BMP280;6279;42.192;24.326;2022-07-29T15:01:32;98719.88;;;34.28
12430;BMP280;6279;42.192;24.326;2022-07-29T15:03:58;98718.47;;;34.22
12430;BMP280;6279;42.192;24.326;2022-07-29T15:06:23;98727.25;;;34.11
12430;BMP280;6279;42.192;24.326;2022-07-29T15:08:49;98718.81;;;34.20
12430;BMP280;6279;42.192;24.326;2022-07-29T15:11:14;98718.38;;;34.10